createdAt,value
2024-05-09T00:06:22.867Z,85.64
2024-05-09T00:16:29.637Z,85.61
2024-05-09T00:26:33.879Z,86.17
2024-05-09T00:36:40.742Z,86.89
2024-05-09T00:46:45.177Z,86.19
2024-05-09T00:56:52.354Z,85.94
2024-05-09T01:06:56.588Z,86.46
2024-05-09T01:17:03.424Z,86.06
2024-05-09T01:27:10.240Z,86.44
2024-05-09T01:37:14.452Z,85.92
2024-05-09T01:47:21.353Z,85.24
2024-05-09T01:57:25.593Z,85.15
2024-05-09T02:07:32.387Z,86.16
2024-05-09T02:17:36.679Z,86.09
2024-05-09T02:27:44.319Z,85.97
2024-05-09T02:37:48.687Z,86.03
2024-05-09T02:47:55.770Z,86.68
2024-05-09T02:58:00.107Z,86.42
2024-05-09T03:08:07.201Z,87.33
2024-05-09T03:18:12.517Z,88.17
2024-05-09T03:28:19.627Z,88.33
2024-05-09T03:38:23.793Z,88.41
2024-05-09T03:48:30.708Z,88.86
2024-05-09T03:58:34.905Z,90.23
2024-05-09T04:08:41.696Z,89.91
2024-05-09T04:18:46.154Z,88.48
2024-05-09T04:28:52.983Z,86.94
2024-05-09T04:38:57.148Z,88.03
2024-05-09T04:49:04.076Z,89.34
2024-05-09T04:59:08.385Z,90.02
2024-05-09T05:09:15.257Z,91.36
2024-05-09T05:19:19.552Z,92.07
2024-05-09T05:29:26.797Z,92.29
2024-05-09T05:39:30.975Z,93.38
2024-05-09T05:49:37.888Z,93.58
2024-05-09T05:59:42.300Z,94.57
2024-05-09T06:09:50.431Z,94.57
2024-05-09T06:19:55.003Z,93.38
2024-05-09T06:30:01.797Z,93.82
2024-05-09T06:40:07.480Z,92.60
2024-05-09T06:50:22.937Z,91.57
2024-05-09T07:00:35.711Z,89.95
2024-05-09T07:10:46.473Z,87.56
2024-05-09T07:20:51.229Z,84.49
2024-05-09T07:30:58.122Z,82.46
2024-05-09T07:41:02.369Z,79.25
2024-05-09T08:01:16.928Z,75.58
2024-05-09T08:11:24.223Z,74.39
2024-05-09T08:21:29.662Z,73.51
2024-05-09T08:31:39.229Z,73.30
2024-05-09T08:41:44.637Z,69.15
2024-05-09T08:51:51.473Z,65.79
2024-05-09T09:01:55.832Z,67.27
2024-05-09T09:12:02.865Z,64.07
2024-05-09T09:22:07.412Z,63.63
2024-05-09T09:32:14.240Z,63.08
2024-05-09T09:42:19.179Z,61.55
2024-05-09T09:52:26.306Z,59.71
2024-05-09T10:02:30.692Z,57.09
2024-05-09T10:12:37.863Z,58.33
2024-05-09T10:22:50.349Z,56.06
2024-05-09T10:32:59.156Z,55.04
2024-05-09T10:43:06.337Z,52.84
2024-05-09T10:53:13.353Z,52.11
2024-05-09T11:03:17.635Z,51.36
2024-05-09T11:13:34.472Z,55.02
2024-05-09T11:23:38.647Z,54.23
2024-05-09T11:33:46.659Z,54.89
2024-05-09T11:43:51.024Z,52.37
2024-05-09T11:53:57.890Z,50.22
2024-05-09T12:04:02.309Z,52.62
2024-05-09T12:14:09.308Z,51.83
2024-05-09T12:24:16.960Z,50.85
2024-05-09T12:34:25.319Z,51.11
2024-05-09T12:44:29.525Z,48.94
2024-05-09T12:54:36.317Z,49.00
2024-05-09T13:04:40.639Z,46.26
2024-05-09T13:14:47.436Z,46.32
2024-05-09T13:24:51.968Z,49.17
2024-05-09T13:34:58.802Z,48.21
2024-05-09T13:45:02.972Z,46.80
2024-05-09T13:55:11.105Z,46.35
2024-05-09T14:05:15.844Z,47.92
2024-05-09T14:15:22.795Z,47.87
2024-05-09T14:25:28.187Z,47.21
2024-05-09T14:35:35.288Z,44.14
2024-05-09T14:45:39.701Z,43.82
2024-05-09T14:55:46.713Z,45.47
2024-05-09T15:05:51.674Z,45.00
2024-05-09T15:15:59.045Z,45.00
2024-05-09T15:26:03.326Z,45.18
2024-05-09T15:36:10.416Z,44.61
2024-05-09T15:46:14.950Z,43.71
2024-05-09T15:56:21.983Z,44.67
2024-05-09T16:06:26.191Z,42.70
2024-05-09T16:16:33.163Z,42.77
2024-05-09T16:26:37.431Z,44.17
2024-05-09T16:36:44.249Z,44.63
2024-05-09T16:46:48.504Z,44.96
2024-05-09T16:56:56.948Z,45.02
2024-05-09T17:07:01.272Z,45.27
2024-05-09T17:17:10.169Z,42.86
2024-05-09T17:27:14.412Z,44.33
2024-05-09T17:37:21.275Z,44.40
2024-05-09T17:47:25.685Z,46.20
2024-05-09T17:57:32.584Z,47.47
2024-05-09T18:07:36.936Z,47.54
2024-05-09T18:17:43.803Z,48.69
2024-05-09T18:27:49.296Z,49.03
2024-05-09T18:37:56.349Z,50.27
2024-05-09T18:48:00.751Z,49.64
2024-05-09T18:58:07.931Z,50.70
2024-05-09T19:08:12.595Z,51.05
2024-05-09T19:18:19.610Z,52.45
2024-05-09T19:28:23.905Z,52.64
2024-05-09T19:38:30.814Z,53.89
2024-05-09T19:48:35.119Z,53.59
2024-05-09T19:58:41.945Z,55.05
2024-05-09T20:08:46.108Z,56.85
2024-05-09T20:18:53.111Z,56.60
2024-05-09T20:28:57.356Z,56.60
2024-05-09T20:39:04.210Z,57.44
2024-05-09T20:49:08.522Z,57.61
2024-05-09T20:59:15.382Z,57.41
2024-05-09T21:09:19.591Z,58.71
2024-05-09T21:19:26.434Z,59.54
2024-05-09T21:29:30.692Z,57.92
2024-05-09T21:39:38.122Z,58.76
2024-05-09T21:49:42.546Z,58.97
2024-05-09T21:59:49.379Z,60.24
2024-05-09T22:09:53.566Z,61.34
2024-05-09T22:20:00.367Z,61.58
2024-05-09T22:30:07.192Z,62.61
2024-05-09T22:40:28.275Z,63.19
2024-05-09T22:50:41.395Z,64.63
2024-05-09T23:00:48.261Z,62.94
2024-05-09T23:10:52.664Z,63.02
2024-05-09T23:20:59.468Z,63.80
2024-05-09T23:31:03.678Z,64.77
2024-05-09T23:41:11.049Z,64.81
2024-05-09T23:51:15.212Z,65.06
